CYWG/YWG METAR and TAF weather

Enter ICAO airport designator
Station Type Date Time Source
CYWG METAR 2018/04/23 11:00 UTC NOAA

CYWG 231100Z 29008KT 15SM FEW100 FEW250 02/M01 A3011 RMK AC1CI1 AC TR SLP205


Station Type Date Time Source
CYWG Decoded METAR 2018/04/23 11:00 UTC NOAA

Winnipeg Int. Airportman., Canada (CYWG) 49-54N 097-14W 239M
Apr 23, 2018 - 07:00 AM EDT / 2018.04.23 1100 UTC
Wind: from the WNW (290 degrees) at 9 MPH (8 KT):0
Visibility: 15 mile(s):0
Sky conditions: mostly clear
Temperature: 35 F (2 C)
Windchill: 28 F (-2 C):1
Dew Point: 30 F (-1 C)
Relative Humidity: 80%
Pressure (altimeter): 30.11 in. Hg (1019 hPa)
ob: CYWG 231100Z 29008KT 15SM FEW100 FEW250 02/M01 A3011 RMK AC1CI1 AC TR SLP205
cycle: 11

Station Type Date Time Source
CYWG TAF 2018/04/23 06:39 UTC NOAA

TAF CYWG 230538Z 2306/2406 24010KT P6SM FEW100
BECMG 2308/2310 28012KT
FM231500 31015KT P6SM FEW030
FM240000 34012KT P6SM BKN050
TEMPO 2400/2404 P6SM -SHRA
BECMG 2404/2406 03008KT
RMK NXT FCST BY 231200Z


Example: see airport list